Time;durP1;ratioP1;P1;durP2;ratioP2;P2;SDS_P1;SDS_P2;PMS_P1;PMS_P2;Temp;Humidity;BMP_temperature;BMP_pressure;BME280_temperature;BME280_humidity;BME280_pressure;Samples;Min_cycle;Max_cycle;Signal;HPM_P1;HPM_P2
2023/09/10 07:03:41;;;;;;;;;12.25;10.50;;;;;32.50;34.07;101136.84;5155140;27;45340;-69
2023/09/10 07:06:06;;;;;;;;;8.25;8.25;;;;;32.90;33.51;101134.34;5137704;27;45367;-67
2023/09/10 07:08:34;;;;;;;;;8.25;8.25;;;;;33.15;33.50;101135.50;5136629;27;45267;-67
2023/09/10 07:10:59;;;;;;;;;11.00;10.25;;;;;33.34;32.72;101151.44;5137107;27;45459;-69
2023/09/10 07:13:25;;;;;;;;;11.00;11.00;;;;;33.55;32.39;101150.41;5130444;27;46117;-68
2023/09/10 07:15:50;;;;;;;;;14.00;11.50;;;;;33.69;32.27;101146.56;5137200;27;45264;-69
2023/09/10 07:18:15;;;;;;;;;11.50;11.50;;;;;33.78;31.82;101145.31;5137450;27;45256;-69
2023/09/10 07:20:41;;;;;;;;;9.50;9.50;;;;;33.89;31.49;101142.97;5137386;27;45562;-69
2023/09/10 07:23:06;;;;;;;;;10.50;10.50;;;;;33.95;31.47;101142.97;5136435;27;61305;-69
2023/09/10 07:25:31;;;;;;;;;11.25;10.25;;;;;34.08;31.08;101156.06;5137250;27;45406;-71
2023/09/10 07:27:56;;;;;;;;;12.25;12.25;;;;;34.02;31.61;101163.34;5136567;27;56102;-70
2023/09/10 07:30:22;;;;;;;;;11.50;10.50;;;;;34.11;31.73;101148.09;5117747;27;45852;-69
2023/09/10 07:32:47;;;;;;;;;14.00;11.00;;;;;34.18;31.28;101154.56;5136651;27;51634;-71
2023/09/10 07:35:13;;;;;;;;;12.00;11.00;;;;;34.22;31.21;101152.19;5137097;27;45391;-65
2023/09/10 07:37:39;;;;;;;;;9.00;8.50;;;;;34.28;31.43;101156.09;5136913;27;45363;-66
2023/09/10 07:40:05;;;;;;;;;11.25;9.00;;;;;34.37;31.19;101160.31;5136791;27;45447;-66
2023/09/10 07:42:30;;;;;;;;;9.50;9.00;;;;;34.39;31.04;101166.53;5136945;27;46306;-66
2023/09/10 07:44:55;;;;;;;;;8.50;8.50;;;;;34.34;30.59;101164.41;5136382;27;61745;-66
2023/09/10 07:47:20;;;;;;;;;12.75;12.75;;;;;34.47;30.74;101160.75;5136300;27;53805;-67
2023/09/10 07:49:50;;;;;;;;;12.50;11.00;;;;;34.51;30.37;101156.47;5136703;27;47463;-65
2023/09/10 07:52:15;;;;;;;;;11.75;9.50;;;;;34.55;30.08;101160.50;5136222;27;46225;-65
2023/09/10 07:54:42;;;;;;;;;14.50;8.75;;;;;34.75;30.43;101158.56;5113768;27;57347;-66
2023/09/10 07:57:07;;;;;;;;;8.00;8.00;;;;;34.94;30.20;101151.25;5132872;27;45612;-68
2023/09/10 07:59:32;;;;;;;;;13.25;9.75;;;;;34.99;30.01;101162.56;5136480;27;45487;-68
2023/09/10 08:01:59;;;;;;;;;12.00;9.75;;;;;35.05;29.64;101144.94;5126435;27;46481;-68
2023/09/10 08:04:25;;;;;;;;;10.50;10.50;;;;;35.14;29.10;101162.28;5123956;27;45270;-68
2023/09/10 08:06:50;;;;;;;;;9.25;9.25;;;;;35.17;29.50;101167.41;5122652;27;45439;-67
2023/09/10 08:09:16;;;;;;;;;10.75;9.25;;;;;35.21;29.78;101158.41;5122208;27;45253;-68
2023/09/10 08:11:42;;;;;;;;;9.25;7.75;;;;;35.29;29.60;101160.13;5122095;27;59020;-68
2023/09/10 08:14:07;;;;;;;;;9.00;9.00;;;;;35.35;29.49;101150.00;5122677;27;45364;-68
2023/09/10 08:16:32;;;;;;;;;10.50;10.50;;;;;35.48;29.39;101152.69;5122369;27;45149;-68
2023/09/10 08:18:58;;;;;;;;;9.75;9.50;;;;;35.56;29.37;101147.69;5122240;27;49069;-68
2023/09/10 08:21:23;;;;;;;;;13.25;9.50;;;;;35.60;29.70;101139.75;5122431;27;45271;-68
2023/09/10 08:23:48;;;;;;;;;10.00;10.00;;;;;35.72;29.23;101142.72;5118622;27;45498;-68
2023/09/10 08:26:14;;;;;;;;;8.50;8.25;;;;;35.78;29.58;101144.59;5122220;27;45317;-69
2023/09/10 08:28:39;;;;;;;;;12.00;10.00;;;;;35.88;28.70;101156.13;5103135;27;45456;-68
2023/09/10 08:31:05;;;;;;;;;10.00;10.00;;;;;35.96;28.96;101142.75;5118694;27;45434;-67
2023/09/10 08:33:30;;;;;;;;;10.00;10.00;;;;;35.99;28.58;101135.81;5101735;27;45642;-67
2023/09/10 08:35:56;;;;;;;;;16.50;8.75;;;;;35.99;28.63;101133.88;5109326;27;45743;-69
2023/09/10 08:38:22;;;;;;;;;11.00;9.00;;;;;36.03;28.33;101134.31;5119297;27;45560;-68
2023/09/10 08:40:59;;;;;;;;;10.25;10.25;;;;;36.15;28.00;101151.19;5118764;27;46122;-68
2023/09/10 08:43:40;;;;;;;;;11.00;11.00;;;;;36.19;28.06;101135.66;5121342;27;45448;-68
2023/09/10 08:46:10;;;;;;;;;9.50;9.50;;;;;36.06;28.02;101136.66;5121760;27;45472;-68
2023/09/10 08:48:39;;;;;;;;;11.50;10.75;;;;;36.14;27.73;101141.94;5117281;27;45374;-67
2023/09/10 08:51:06;;;;;;;;;9.75;9.50;;;;;36.10;27.66;101134.22;5103188;27;45394;-68
2023/09/10 08:53:34;;;;;;;;;14.25;10.75;;;;;36.19;28.53;101136.53;5115177;27;45271;-69
2023/09/10 08:56:01;;;;;;;;;10.00;10.00;;;;;36.26;28.25;101140.13;5097413;27;45463;-69
2023/09/10 08:58:27;;;;;;;;;9.75;8.25;;;;;36.32;28.36;101128.06;5111127;27;45549;-68
2023/09/10 09:00:54;;;;;;;;;9.25;9.25;;;;;36.40;28.01;101132.50;5112153;27;46234;-68
2023/09/10 09:03:20;;;;;;;;;10.25;8.25;;;;;36.50;27.87;101143.09;5096662;27;45460;-68
2023/09/10 09:05:51;;;;;;;;;12.25;12.00;;;;;36.45;27.65;101131.78;5111104;27;45489;-67
2023/09/10 09:08:23;;;;;;;;;9.25;9.00;;;;;36.42;27.62;101135.88;5114823;27;45480;-67
2023/09/10 09:10:50;;;;;;;;;11.00;10.00;;;;;36.48;27.89;101131.31;5112000;27;45435;-69
2023/09/10 09:13:17;;;;;;;;;9.75;9.25;;;;;36.60;27.85;101129.47;5110843;27;45365;-69
2023/09/10 09:15:44;;;;;;;;;14.50;12.00;;;;;36.64;28.03;101128.78;5111229;27;45455;-70
2023/09/10 09:18:14;;;;;;;;;12.00;10.25;;;;;36.72;28.49;101136.88;5093040;27;45362;-69
2023/09/10 09:20:44;;;;;;;;;10.75;10.75;;;;;36.72;27.97;101127.66;5112553;27;46212;-69
2023/09/10 09:23:29;;;;;;;;;12.50;11.75;;;;;36.81;27.77;101133.78;5109886;27;45589;-69
2023/09/10 09:25:55;;;;;;;;;9.00;9.00;;;;;36.82;27.53;101132.69;5113340;27;45346;-69
2023/09/10 09:28:22;;;;;;;;;8.00;8.00;;;;;36.86;27.77;101129.19;5112906;27;45422;-69
2023/09/10 09:30:47;;;;;;;;;12.25;12.25;;;;;36.88;27.67;101113.03;5111790;27;46504;-69
2023/09/10 09:33:13;;;;;;;;;11.00;10.00;;;;;37.00;27.58;101119.56;5093582;27;45408;-69
2023/09/10 09:35:39;;;;;;;;;11.75;11.00;;;;;36.91;27.43;101087.44;5112174;27;45337;-69
2023/09/10 09:38:07;;;;;;;;;11.00;10.75;;;;;37.04;27.32;101104.00;5120810;27;45368;-69
2023/09/10 09:40:34;;;;;;;;;13.75;11.25;;;;;37.20;27.82;101108.13;5121031;27;46174;-69
2023/09/10 09:43:01;;;;;;;;;5.00;5.00;;;;;37.26;26.79;101107.16;5120900;27;45301;-69
2023/09/10 09:45:26;;;;;;;;;14.00;12.00;;;;;37.22;27.25;101103.16;5120393;27;45277;-69
2023/09/10 09:47:53;;;;;;;;;12.00;10.50;;;;;37.29;27.21;101106.69;5117696;27;45244;-69
2023/09/10 09:50:20;;;;;;;;;13.50;12.00;;;;;37.32;27.25;101097.00;5110127;27;46172;-69
2023/09/10 09:52:52;;;;;;;;;14.75;12.50;;;;;37.39;26.82;101094.94;5109957;27;45553;-68
2023/09/10 09:55:17;;;;;;;;;11.00;11.00;;;;;37.41;26.81;101096.41;5107011;27;45297;-69
2023/09/10 09:57:49;;;;;;;;;12.00;10.00;;;;;37.53;27.55;101099.22;5114088;27;51858;-68
2023/09/10 10:00:15;;;;;;;;;11.00;11.00;;;;;37.53;26.64;101095.56;5105432;27;46332;-67
2023/09/10 10:02:41;;;;;;;;;12.50;10.50;;;;;37.54;26.33;101098.13;5093527;27;45354;-69
2023/09/10 10:05:08;;;;;;;;;11.50;11.00;;;;;37.58;26.86;101087.34;5110029;27;45371;-68
2023/09/10 10:07:36;;;;;;;;;11.25;10.75;;;;;37.69;26.45;101104.16;5114425;27;45405;-69
2023/09/10 10:10:06;;;;;;;;;13.50;12.00;;;;;37.73;26.60;101091.41;5110945;27;46137;-69
2023/09/10 10:12:31;;;;;;;;;12.25;12.25;;;;;37.82;26.58;101103.09;5112608;27;45448;-68
2023/09/10 10:14:57;;;;;;;;;14.25;13.25;;;;;37.82;26.36;101092.75;5119626;27;45288;-67
2023/09/10 10:17:23;;;;;;;;;16.75;11.75;;;;;37.87;26.65;101094.81;5120261;27;45568;-66
2023/09/10 10:19:50;;;;;;;;;16.00;11.50;;;;;37.86;26.15;101090.31;5119522;27;45409;-66
2023/09/10 10:22:15;;;;;;;;;12.50;11.25;;;;;37.87;26.15;101095.69;5120015;27;45307;-66
2023/09/10 10:24:41;;;;;;;;;12.75;11.25;;;;;38.03;26.26;101105.31;5120440;27;45400;-66
2023/09/10 10:27:08;;;;;;;;;12.25;12.25;;;;;38.10;26.33;101099.66;5119968;27;45478;-65
2023/09/10 10:29:34;;;;;;;;;9.50;9.50;;;;;38.14;25.94;101089.66;5119961;27;46463;-66
2023/09/10 10:32:30;;;;;;;;;13.00;13.00;;;;;38.26;26.03;101089.66;5119998;27;45236;-66
2023/09/10 10:34:59;;;;;;;;;14.25;13.00;;;;;38.36;25.92;101092.69;5113406;27;45318;-66
2023/09/10 10:37:49;;;;;;;;;14.00;12.25;;;;;38.42;26.43;101094.50;5119894;27;45343;-66
2023/09/10 10:40:19;;;;;;;;;12.00;11.25;;;;;38.42;25.89;101086.97;5119899;27;45453;-65
2023/09/10 10:42:44;;;;;;;;;14.00;12.00;;;;;38.49;25.42;101093.28;5120038;27;45308;-64
2023/09/10 10:45:15;;;;;;;;;13.75;13.75;;;;;38.44;25.28;101090.38;5120206;27;45292;-66
2023/09/10 10:47:42;;;;;;;;;9.75;8.00;;;;;38.60;25.93;101075.63;5120191;27;45300;-65
2023/09/10 10:50:09;;;;;;;;;7.50;7.50;;;;;38.72;25.58;101071.94;5101760;27;46282;-66
2023/09/10 10:52:41;;;;;;;;;11.00;10.75;;;;;38.61;25.58;101070.88;5118633;27;45289;-66
2023/09/10 10:55:07;;;;;;;;;13.00;11.50;;;;;38.69;25.48;101073.31;5113085;27;45362;-65
2023/09/10 10:57:34;;;;;;;;;12.25;11.25;;;;;38.79;25.18;101067.06;5113150;27;45547;-66
2023/09/10 11:00:03;;;;;;;;;13.75;12.75;;;;;38.78;25.32;101054.13;5119975;27;46578;-67
2023/09/10 11:02:28;;;;;;;;;14.25;12.50;;;;;38.99;25.48;101059.06;5117137;27;45338;-67
2023/09/10 11:04:59;;;;;;;;;13.75;12.25;;;;;39.10;24.84;101054.53;5119916;27;45908;-67
2023/09/10 11:07:26;;;;;;;;;15.50;14.50;;;;;39.19;25.14;101047.41;5119535;27;45381;-66
2023/09/10 11:09:52;;;;;;;;;13.75;13.25;;;;;39.22;25.08;101046.88;5119890;27;47105;-66
2023/09/10 11:12:18;;;;;;;;;13.50;13.50;;;;;39.24;25.21;101045.53;5119622;27;45272;-66
2023/09/10 11:14:58;;;;;;;;;14.75;13.25;;;;;39.29;24.67;101058.81;5119787;27;45568;-65
2023/09/10 11:17:26;;;;;;;;;12.25;12.25;;;;;39.28;24.74;101051.50;5119611;27;45423;-66
2023/09/10 11:19:51;;;;;;;;;13.25;13.25;;;;;39.18;24.46;101040.94;5119519;27;45397;-66
2023/09/10 11:22:16;;;;;;;;;14.25;12.25;;;;;39.30;24.16;101052.94;5119241;27;45306;-64
2023/09/10 11:24:42;;;;;;;;;18.25;15.00;;;;;39.36;24.18;101051.09;5119745;27;45443;-65
2023/09/10 11:27:22;;;;;;;;;12.75;11.25;;;;;39.36;24.79;101048.28;5119086;27;45344;-63
2023/09/10 11:30:13;;;;;;;;;9.25;6.25;;;;;39.37;24.85;101043.53;5097671;27;46284;-62
2023/09/10 11:32:39;;;;;;;;;12.75;11.25;;;;;39.35;24.72;101039.03;5098774;27;45177;-63
2023/09/10 11:35:21;;;;;;;;;13.00;12.00;;;;;39.35;24.52;101043.78;5092269;27;45225;-62
2023/09/10 11:37:53;;;;;;;;;11.75;10.50;;;;;39.39;24.62;101050.59;5112402;27;45350;-62
2023/09/10 11:40:19;;;;;;;;;11.25;11.00;;;;;39.48;24.52;101040.66;5115974;27;46336;-64
2023/09/10 11:42:46;;;;;;;;;12.75;12.00;;;;;39.54;23.76;101045.28;5113212;27;45473;-63
2023/09/10 11:45:13;;;;;;;;;11.00;11.00;;;;;39.59;23.80;101041.69;5109695;27;45480;-63
2023/09/10 11:47:43;;;;;;;;;13.25;12.75;;;;;39.70;24.12;101035.16;5122576;27;45457;-60
2023/09/10 11:50:10;;;;;;;;;13.75;13.00;;;;;39.86;23.81;101037.13;5114233;27;45428;-60
2023/09/10 11:52:36;;;;;;;;;12.25;12.25;;;;;39.97;23.62;101027.78;5113151;27;45315;-60
2023/09/10 11:55:04;;;;;;;;;14.00;11.50;;;;;40.08;23.63;101023.13;5107280;27;45330;-61
2023/09/10 11:57:31;;;;;;;;;11.50;11.50;;;;;40.16;23.35;101019.88;5112211;27;45450;-60
2023/09/10 11:59:57;;;;;;;;;12.75;11.50;;;;;40.31;23.49;101016.50;5095318;27;47156;-62
2023/09/10 12:02:24;;;;;;;;;11.25;11.25;;;;;40.41;23.48;101011.84;5113123;27;45329;-61
2023/09/10 12:04:49;;;;;;;;;10.50;10.50;;;;;40.50;22.96;101009.41;5117570;27;45385;-61
2023/09/10 12:07:14;;;;;;;;;14.50;12.75;;;;;40.60;22.97;101011.50;5112069;27;45319;-61
2023/09/10 12:09:40;;;;;;;;;14.00;13.25;;;;;40.66;22.85;101008.53;5113321;27;46351;-60
2023/09/10 12:12:10;;;;;;;;;15.00;10.50;;;;;40.77;22.15;101015.97;5111309;27;45389;-61
2023/09/10 12:14:37;;;;;;;;;13.50;13.50;;;;;40.76;21.65;101016.22;5109173;27;45319;-60
2023/09/10 12:17:04;;;;;;;;;16.25;15.25;;;;;40.76;21.94;101013.41;5122311;27;45662;-58
2023/09/10 12:19:30;;;;;;;;;13.75;13.75;;;;;40.95;21.29;101017.59;5120084;27;46662;-60
2023/09/10 12:21:56;;;;;;;;;13.50;13.50;;;;;41.03;21.55;101007.81;5122148;27;45412;-60
2023/09/10 12:24:21;;;;;;;;;15.00;11.75;;;;;41.09;21.83;101024.47;5119351;27;45650;-59
2023/09/10 12:26:47;;;;;;;;;18.75;13.00;;;;;41.12;21.04;101017.50;5103274;27;45531;-59
2023/09/10 12:29:13;;;;;;;;;12.50;11.50;;;;;41.18;21.14;101014.47;5117904;27;45365;-58
2023/09/10 12:31:39;;;;;;;;;14.00;12.00;;;;;41.35;20.94;101022.78;5122323;27;45298;-59
2023/09/10 12:34:04;;;;;;;;;13.50;11.00;;;;;41.45;21.48;101027.66;5122523;27;45230;-59
2023/09/10 12:36:30;;;;;;;;;14.25;14.25;;;;;41.45;21.19;101016.41;5121118;27;45472;-60
2023/09/10 12:38:56;;;;;;;;;12.25;11.75;;;;;41.42;20.66;101019.78;5120211;27;46373;-59
2023/09/10 12:41:21;;;;;;;;;13.75;11.50;;;;;41.60;20.81;101029.81;5120025;27;45296;-62
2023/09/10 12:43:46;;;;;;;;;12.75;11.00;;;;;41.76;20.74;101018.41;5118519;27;45275;-61
2023/09/10 12:46:12;;;;;;;;;15.00;12.25;;;;;41.90;20.92;101008.34;5119653;27;45406;-61
2023/09/10 12:48:37;;;;;;;;;11.00;11.00;;;;;42.07;20.83;101013.84;5119436;27;46555;-60
2023/09/10 12:51:03;;;;;;;;;14.50;13.00;;;;;42.12;21.03;101002.59;5119699;27;45381;-60
2023/09/10 12:53:29;;;;;;;;;13.25;11.25;;;;;42.13;20.54;101011.91;5119341;27;45652;-58
2023/09/10 12:55:55;;;;;;;;;14.75;12.00;;;;;42.11;21.75;101002.91;5105791;27;45435;-59
2023/09/10 12:58:21;;;;;;;;;13.50;11.25;;;;;42.15;21.34;101015.31;5120566;27;46313;-60
2023/09/10 13:00:57;;;;;;;;;14.00;13.00;;;;;42.06;21.56;101014.13;5119176;27;45365;-59
2023/09/10 13:03:24;;;;;;;;;14.00;12.75;;;;;42.03;20.85;101006.19;5108827;27;45403;-59
2023/09/10 13:05:49;;;;;;;;;13.75;12.75;;;;;42.09;21.45;101010.75;5121318;27;46698;-59
2023/09/10 13:08:15;;;;;;;;;8.25;8.25;;;;;42.16;21.64;101009.41;5121497;27;46033;-59
2023/09/10 13:10:40;;;;;;;;;16.00;11.25;;;;;42.15;21.30;101009.66;5121451;27;51658;-58
2023/09/10 13:13:07;;;;;;;;;12.00;11.00;;;;;42.11;20.67;101006.53;5121669;27;45416;-60
2023/09/10 13:15:32;;;;;;;;;12.00;11.00;;;;;42.18;20.55;101000.69;5121257;27;45970;-59
2023/09/10 13:17:58;;;;;;;;;12.00;10.25;;;;;42.26;20.44;101000.16;5121546;27;46134;-59
2023/09/10 13:20:25;;;;;;;;;12.25;11.25;;;;;42.24;20.27;100991.13;5120898;27;45363;-59
2023/09/10 13:22:51;;;;;;;;;9.50;9.50;;;;;42.24;20.57;100985.47;5109236;27;45444;-59
2023/09/10 13:25:16;;;;;;;;;12.75;12.50;;;;;42.36;20.74;100990.94;5120505;27;45422;-59
2023/09/10 13:27:41;;;;;;;;;12.00;11.75;;;;;42.39;20.54;100987.53;5121175;27;46797;-59
2023/09/10 13:30:07;;;;;;;;;12.25;12.25;;;;;42.41;19.94;100972.06;5121227;27;45393;-59
2023/09/10 13:32:33;;;;;;;;;12.50;11.00;;;;;42.47;19.94;100984.19;5121361;27;45295;-59
2023/09/10 13:34:58;;;;;;;;;8.00;8.00;;;;;42.44;20.19;100979.13;5121097;27;45582;-55
2023/09/10 13:37:23;;;;;;;;;9.50;9.00;;;;;42.55;19.19;100992.97;5120543;27;55958;-55
2023/09/10 13:39:48;;;;;;;;;10.25;10.25;;;;;42.55;18.95;100975.19;5120538;27;54711;-53
2023/09/10 13:42:14;;;;;;;;;12.75;11.00;;;;;42.60;20.28;100964.81;5121591;27;45295;-54
2023/09/10 13:44:39;;;;;;;;;9.00;7.50;;;;;42.67;19.18;100973.84;5121017;27;52931;-55
2023/09/10 13:47:04;;;;;;;;;11.00;11.00;;;;;42.64;19.18;100957.47;5121014;27;59209;-55
2023/09/10 13:49:30;;;;;;;;;9.75;9.75;;;;;42.69;19.11;100961.44;5121209;27;45347;-55
2023/09/10 13:51:55;;;;;;;;;9.50;9.50;;;;;42.71;18.52;100962.84;5121269;27;45381;-55
2023/09/10 13:54:20;;;;;;;;;11.25;11.25;;;;;42.69;18.98;100953.84;5120599;27;45543;-54
2023/09/10 13:56:46;;;;;;;;;11.00;9.50;;;;;42.74;19.26;100953.84;5107611;27;47116;-56
2023/09/10 13:59:11;;;;;;;;;12.50;10.50;;;;;42.90;18.41;100961.22;5121010;27;45314;-54
2023/09/10 14:01:36;;;;;;;;;10.00;8.50;;;;;42.98;19.21;100957.84;5118375;27;45476;-56
2023/09/10 14:04:02;;;;;;;;;11.00;10.25;;;;;43.10;19.52;100959.56;5120791;27;49237;-57
2023/09/10 14:06:28;;;;;;;;;9.00;9.00;;;;;43.11;18.66;100955.63;5119180;27;45343;-57
2023/09/10 14:08:53;;;;;;;;;10.75;9.50;;;;;43.20;18.89;100939.84;5116034;27;45341;-56
2023/09/10 14:11:18;;;;;;;;;9.00;9.00;;;;;43.18;19.10;100942.97;5121029;27;45540;-56
2023/09/10 14:13:44;;;;;;;;;11.75;10.50;;;;;43.40;19.34;100942.66;5117205;27;45559;-53
2023/09/10 14:16:10;;;;;;;;;12.25;11.25;;;;;43.40;18.43;100931.38;5120575;27;46122;-55
2023/09/10 14:18:40;;;;;;;;;11.25;11.25;;;;;43.55;18.46;100941.84;5120716;27;45302;-55
2023/09/10 14:21:06;;;;;;;;;8.50;8.50;;;;;43.61;18.06;100930.25;5121025;27;45311;-54
2023/09/10 14:23:32;;;;;;;;;9.75;9.75;;;;;43.68;18.72;100929.94;5120181;27;45460;-54
2023/09/10 14:25:58;;;;;;;;;12.00;10.75;;;;;43.65;17.52;100927.69;5120609;27;46109;-55
2023/09/10 14:28:23;;;;;;;;;12.25;11.25;;;;;43.70;17.03;100939.84;5101936;27;45408;-54
2023/09/10 14:30:49;;;;;;;;;12.75;12.00;;;;;43.63;16.96;100930.81;5120738;27;45464;-56
2023/09/10 14:33:14;;;;;;;;;13.75;11.00;;;;;43.72;16.93;100929.13;5120198;27;45377;-56
2023/09/10 14:35:40;;;;;;;;;12.25;10.50;;;;;43.72;17.33;100926.28;5120525;27;45368;-55
2023/09/10 14:38:06;;;;;;;;;10.25;10.25;;;;;43.70;16.93;100920.06;5120088;27;45664;-54
2023/09/10 14:40:33;;;;;;;;;11.25;11.25;;;;;43.74;16.40;100938.13;5120537;27;45319;-54
2023/09/10 14:42:58;;;;;;;;;11.50;10.00;;;;;43.74;17.42;100920.31;5120392;27;45471;-55
2023/09/10 14:45:24;;;;;;;;;8.25;8.25;;;;;43.80;16.76;100935.31;5119502;27;45241;-53
2023/09/10 14:47:49;;;;;;;;;11.00;11.00;;;;;43.78;16.97;100935.59;5120127;27;45307;-55
2023/09/10 14:50:15;;;;;;;;;11.25;10.25;;;;;43.87;16.56;100927.38;5120093;27;51279;-53
2023/09/10 14:52:41;;;;;;;;;9.75;9.25;;;;;43.97;16.66;100933.88;5117347;27;45799;-55
2023/09/10 14:55:07;;;;;;;;;8.00;8.00;;;;;43.84;16.54;100930.75;5112868;27;46778;-58
2023/09/10 14:57:32;;;;;;;;;18.75;17.00;;;;;43.95;19.90;100922.00;5117018;27;45504;-59
2023/09/10 14:59:58;;;;;;;;;8.25;8.25;;;;;43.98;16.79;100929.06;5118615;27;45509;-59
2023/09/10 15:02:23;;;;;;;;;13.00;7.50;;;;;43.76;16.31;100923.72;5119336;27;45484;-59
2023/09/10 15:04:49;;;;;;;;;8.50;8.50;;;;;43.82;15.19;100933.00;5119259;27;45629;-58
2023/09/10 15:07:16;;;;;;;;;10.75;9.50;;;;;43.89;16.25;100916.63;5119413;27;45350;-59
2023/09/10 15:09:41;;;;;;;;;13.00;10.75;;;;;44.07;16.08;100930.13;5118657;27;45457;-58
2023/09/10 15:12:07;;;;;;;;;8.75;8.75;;;;;44.17;16.73;100923.59;5117836;27;45472;-58
2023/09/10 15:14:32;;;;;;;;;10.50;7.00;;;;;44.03;15.82;100921.41;5122304;27;46100;-57
2023/09/10 15:16:58;;;;;;;;;10.50;10.50;;;;;44.13;15.87;100918.56;5123063;27;45409;-57
2023/09/10 15:19:26;;;;;;;;;9.00;7.00;;;;;44.18;15.68;100926.16;5123367;27;45487;-58
2023/09/10 15:21:53;;;;;;;;;11.00;10.25;;;;;44.21;16.09;100927.56;5122890;27;45495;-58
2023/09/10 15:24:18;;;;;;;;;12.50;11.75;;;;;44.12;15.91;100913.19;5122364;27;46228;-58
2023/09/10 15:26:43;;;;;;;;;10.25;9.25;;;;;44.17;15.80;100918.78;5122916;27;45439;-61
2023/09/10 15:29:09;;;;;;;;;8.25;8.25;;;;;44.21;15.94;100904.94;5121647;27;45520;-58
2023/09/10 15:31:36;;;;;;;;;9.50;9.50;;;;;44.27;15.37;100920.72;5122347;27;61428;-58
2023/09/10 15:34:02;;;;;;;;;8.00;8.00;;;;;44.33;15.65;100911.97;5114006;27;46253;-58
2023/09/10 15:36:27;;;;;;;;;10.00;7.50;;;;;44.18;15.44;100908.34;5112913;27;45324;-58
2023/09/10 15:38:53;;;;;;;;;9.00;9.00;;;;;44.20;15.56;100929.53;5122031;27;50934;-58
2023/09/10 15:41:18;;;;;;;;;8.25;8.25;;;;;44.13;16.01;100926.19;5122220;27;51631;-58
2023/09/10 15:43:43;;;;;;;;;10.00;8.50;;;;;44.15;16.16;100918.25;5122526;27;47002;-58
2023/09/10 15:46:09;;;;;;;;;10.50;8.75;;;;;44.14;15.15;100913.75;5122573;27;45463;-59
2023/09/10 15:48:35;;;;;;;;;10.00;10.00;;;;;44.22;16.05;100907.50;5122891;27;45441;-57
2023/09/10 15:51:01;;;;;;;;;10.00;9.50;;;;;44.16;15.13;100914.28;5122456;27;45999;-59
2023/09/10 15:53:26;;;;;;;;;9.75;9.75;;;;;44.13;15.78;100917.69;5121948;27;46381;-59
2023/09/10 15:55:51;;;;;;;;;9.50;9.50;;;;;44.24;15.43;100912.84;5117821;27;45519;-59
2023/09/10 15:58:17;;;;;;;;;7.50;6.75;;;;;44.24;15.15;100907.19;5118983;27;48144;-58
2023/09/10 16:00:42;;;;;;;;;10.25;8.50;;;;;44.18;15.77;100906.34;5105811;27;61985;-58
2023/09/10 16:03:08;;;;;;;;;7.25;6.00;;;;;44.05;14.83;100909.81;5107392;27;46248;-58
2023/09/10 16:05:34;;;;;;;;;9.50;8.50;;;;;43.90;15.52;100905.00;5105034;27;45336;-58
2023/09/10 16:07:59;;;;;;;;;10.00;9.25;;;;;43.87;15.63;100901.94;5107436;27;45515;-58
2023/09/10 16:10:24;;;;;;;;;9.75;8.75;;;;;43.78;15.25;100903.66;5114734;27;45385;-59
2023/09/10 16:12:50;;;;;;;;;12.25;9.50;;;;;43.91;15.24;100897.38;5118481;27;46214;-58
2023/09/10 16:15:15;;;;;;;;;9.75;8.25;;;;;44.04;15.15;100911.81;5104902;27;45462;-57
2023/09/10 16:17:41;;;;;;;;;11.50;8.25;;;;;43.97;14.99;100914.09;5107554;27;45523;-59
2023/09/10 16:20:08;;;;;;;;;11.25;10.00;;;;;43.95;15.47;100901.38;5127502;27;55797;-58
2023/09/10 16:22:34;;;;;;;;;8.00;8.00;;;;;43.94;15.47;100902.50;5117551;27;47136;-57
2023/09/10 16:24:59;;;;;;;;;9.00;8.00;;;;;43.94;15.38;100899.69;5104022;27;45323;-59
2023/09/10 16:27:25;;;;;;;;;13.50;11.50;;;;;43.86;15.37;100903.91;5107527;27;45309;-59
2023/09/10 16:29:50;;;;;;;;;10.00;9.75;;;;;43.78;15.87;100898.00;5112882;27;45377;-58
2023/09/10 16:32:16;;;;;;;;;10.00;10.00;;;;;43.64;15.75;100886.47;5117521;27;45312;-57
2023/09/10 16:34:42;;;;;;;;;7.00;7.00;;;;;43.76;15.92;100906.78;5104652;27;45348;-58
2023/09/10 16:37:07;;;;;;;;;10.75;9.25;;;;;43.79;16.17;100897.72;5105462;27;45398;-59
2023/09/10 16:39:33;;;;;;;;;8.75;8.75;;;;;43.61;15.59;100893.53;5103762;27;45260;-59
2023/09/10 16:42:01;;;;;;;;;8.50;8.50;;;;;43.61;15.46;100882.25;5110701;27;46510;-59
2023/09/10 16:44:28;;;;;;;;;9.25;9.25;;;;;43.57;15.43;100883.94;5120940;27;45401;-58
2023/09/10 16:46:58;;;;;;;;;8.25;8.00;;;;;43.32;15.98;100887.63;5104301;27;45270;-57
2023/09/10 16:49:24;;;;;;;;;4.25;4.25;;;;;43.14;16.37;100892.97;5104621;27;45316;-58
2023/09/10 16:51:50;;;;;;;;;14.00;12.00;;;;;43.14;16.10;100890.97;5114992;27;46177;-58
2023/09/10 16:54:15;;;;;;;;;8.00;8.00;;;;;43.19;16.65;100893.00;5114225;27;45342;-58
2023/09/10 16:56:41;;;;;;;;;10.00;7.50;;;;;43.21;17.42;100891.59;5115155;27;45464;-59
2023/09/10 16:59:07;;;;;;;;;10.75;8.50;;;;;43.25;17.11;100886.22;5108260;27;45489;-59
2023/09/10 17:01:32;;;;;;;;;9.25;9.25;;;;;43.29;17.32;100887.34;5102429;27;46682;-59
2023/09/10 17:03:57;;;;;;;;;12.50;10.75;;;;;43.20;17.64;100892.72;5113845;27;45357;-58
2023/09/10 17:06:23;;;;;;;;;8.75;8.50;;;;;43.18;17.24;100882.84;5113769;27;45320;-58
2023/09/10 17:08:49;;;;;;;;;10.25;10.00;;;;;43.29;18.13;100888.22;5113587;27;45543;-58
2023/09/10 17:11:15;;;;;;;;;12.50;10.50;;;;;43.36;17.77;100894.41;5110309;27;46316;-58
2023/09/10 17:13:46;;;;;;;;;10.75;10.75;;;;;43.46;17.31;100893.53;5114007;27;45473;-56
2023/09/10 17:16:14;;;;;;;;;6.75;6.75;;;;;43.53;17.93;100888.44;5107492;27;45436;-59
2023/09/10 17:18:40;;;;;;;;;10.50;8.00;;;;;43.63;17.20;100887.59;5110883;27;45338;-58
2023/09/10 17:21:05;;;;;;;;;7.00;7.00;;;;;43.71;17.95;100885.03;5121538;27;45456;-58
2023/09/10 17:23:30;;;;;;;;;10.75;8.00;;;;;43.85;18.03;100896.56;5121381;27;45284;-58
2023/09/10 17:26:00;;;;;;;;;10.25;8.75;;;;;43.94;17.43;100894.88;5116176;27;47754;-58
2023/09/10 17:28:28;;;;;;;;;11.00;9.00;;;;;44.02;17.57;100885.81;5120765;27;45429;-61
2023/09/10 17:30:54;;;;;;;;;8.75;8.50;;;;;44.03;17.19;100881.84;5121325;27;46475;-61
2023/09/10 17:33:19;;;;;;;;;9.00;9.00;;;;;43.93;17.67;100886.66;5121210;27;45410;-60
2023/09/10 17:35:46;;;;;;;;;10.00;9.00;;;;;44.04;17.43;100889.19;5120466;27;45165;-60
2023/09/10 17:38:12;;;;;;;;;9.50;9.00;;;;;44.13;17.64;100887.47;5120621;27;45342;-60
2023/09/10 17:40:38;;;;;;;;;10.75;9.25;;;;;44.14;17.34;100879.81;5102571;27;45326;-59
2023/09/10 17:43:03;;;;;;;;;10.75;9.00;;;;;44.13;17.30;100893.09;5111760;27;45333;-59
2023/09/10 17:45:31;;;;;;;;;10.25;8.25;;;;;43.94;17.57;100886.41;5121284;27;45275;-59
2023/09/10 17:47:56;;;;;;;;;11.00;11.00;;;;;43.80;17.79;100879.66;5120870;27;45388;-59
2023/09/10 17:50:22;;;;;;;;;11.00;9.00;;;;;43.63;17.86;100879.13;5120766;27;46265;-59
2023/09/10 17:52:47;;;;;;;;;9.25;9.25;;;;;43.53;17.53;100877.16;5117271;27;45400;-58
2023/09/10 17:55:13;;;;;;;;;10.75;9.50;;;;;43.39;17.47;100873.19;5122629;27;45486;-59
2023/09/10 17:57:38;;;;;;;;;11.25;9.25;;;;;43.21;17.97;100876.63;5120780;27;45478;-59
2023/09/10 18:00:05;;;;;;;;;12.00;9.75;;;;;43.17;17.89;100876.34;5115737;27;47314;-58
2023/09/10 18:02:32;;;;;;;;;12.00;9.25;;;;;43.01;18.76;100880.28;5120396;27;45285;-59
2023/09/10 18:04:57;;;;;;;;;8.75;7.75;;;;;42.86;18.22;100883.09;5109974;27;45350;-59
2023/09/10 18:07:23;;;;;;;;;11.75;8.25;;;;;42.71;18.10;100880.25;5118325;27;45349;-59
2023/09/10 18:09:50;;;;;;;;;9.25;7.50;;;;;42.60;18.44;100882.19;5108012;27;45328;-59
2023/09/10 18:12:15;;;;;;;;;13.00;9.50;;;;;42.48;18.34;100885.25;5119659;27;45416;-59
2023/09/10 18:14:41;;;;;;;;;8.00;8.00;;;;;42.42;18.46;100897.66;5120658;27;45330;-59